sensor_id;sensor_type;location;lat;lon;timestamp;pressure;altitude;pressure_sealevel;temperature;humidity
70968;BME280;58629;48.808;8.820;2022-08-21T00:00:44;97267.19;;;13.45;85.40
70968;BME280;58629;48.808;8.820;2022-08-21T00:03:10;97269.19;;;13.41;85.24
70968;BME280;58629;48.808;8.820;2022-08-21T00:05:40;97265.44;;;13.38;85.47
70968;BME280;58629;48.808;8.820;2022-08-21T00:08:06;97260.56;;;13.37;85.50
70968;BME280;58629;48.808;8.820;2022-08-21T00:10:32;97264.38;;;13.36;85.13
70968;BME280;58629;48.808;8.820;2022-08-21T00:13:00;97254.91;;;13.35;85.28
70968;BME280;58629;48.808;8.820;2022-08-21T00:15:29;97257.25;;;13.33;85.13
70968;BME280;58629;48.808;8.820;2022-08-21T00:17:55;97259.56;;;13.31;84.29
70968;BME280;58629;48.808;8.820;2022-08-21T00:20:21;97252.75;;;13.30;85.30
70968;BME280;58629;48.808;8.820;2022-08-21T00:22:47;97257.66;;;13.31;85.21
70968;BME280;58629;48.808;8.820;2022-08-21T00:25:13;97252.00;;;13.29;84.94
70968;BME280;58629;48.808;8.820;2022-08-21T00:27:39;97253.28;;;13.25;84.07
70968;BME280;58629;48.808;8.820;2022-08-21T00:30:07;97247.47;;;13.14;84.00
70968;BME280;58629;48.808;8.820;2022-08-21T00:32:35;97249.56;;;13.06;85.15
70968;BME280;58629;48.808;8.820;2022-08-21T00:35:01;97241.44;;;12.97;85.10
70968;BME280;58629;48.808;8.820;2022-08-21T00:37:26;97247.66;;;12.90;86.01
70968;BME280;58629;48.808;8.820;2022-08-21T00:39:52;97242.78;;;12.89;86.98
70968;BME280;58629;48.808;8.820;2022-08-21T00:42:18;97241.63;;;12.74;85.12
70968;BME280;58629;48.808;8.820;2022-08-21T00:44:46;97244.22;;;12.61;85.38
70968;BME280;58629;48.808;8.820;2022-08-21T00:47:12;97247.53;;;12.49;86.11
70968;BME280;58629;48.808;8.820;2022-08-21T00:49:39;97240.00;;;12.48;86.93
70968;BME280;58629;48.808;8.820;2022-08-21T00:52:07;97241.38;;;12.52;87.73
70968;BME280;58629;48.808;8.820;2022-08-21T00:54:34;97238.63;;;12.56;87.80
70968;BME280;58629;48.808;8.820;2022-08-21T00:57:04;97234.41;;;12.58;87.21
70968;BME280;58629;48.808;8.820;2022-08-21T00:59:35;97240.81;;;12.61;87.60
70968;BME280;58629;48.808;8.820;2022-08-21T01:02:05;97240.47;;;12.59;88.41
70968;BME280;58629;48.808;8.820;2022-08-21T01:04:32;97236.31;;;12.58;88.01
70968;BME280;58629;48.808;8.820;2022-08-21T01:06:57;97237.81;;;12.59;88.54
70968;BME280;58629;48.808;8.820;2022-08-21T01:09:22;97236.41;;;12.54;88.24
70968;BME280;58629;48.808;8.820;2022-08-21T01:11:48;97232.34;;;12.50;87.85
70968;BME280;58629;48.808;8.820;2022-08-21T01:14:14;97237.47;;;12.41;86.35
70968;BME280;58629;48.808;8.820;2022-08-21T01:16:42;97235.00;;;12.34;87.32
70968;BME280;58629;48.808;8.820;2022-08-21T01:19:09;97239.22;;;12.31;86.78
70968;BME280;58629;48.808;8.820;2022-08-21T01:21:36;97242.69;;;12.28;87.54
70968;BME280;58629;48.808;8.820;2022-08-21T01:24:02;97233.66;;;12.26;88.18
70968;BME280;58629;48.808;8.820;2022-08-21T01:26:32;97230.50;;;12.31;88.23
70968;BME280;58629;48.808;8.820;2022-08-21T01:29:09;97236.16;;;12.33;88.56
70968;BME280;58629;48.808;8.820;2022-08-21T01:31:37;97236.91;;;12.33;88.08
70968;BME280;58629;48.808;8.820;2022-08-21T01:34:04;97232.81;;;12.29;87.79
70968;BME280;58629;48.808;8.820;2022-08-21T01:36:29;97222.63;;;12.27;88.31
70968;BME280;58629;48.808;8.820;2022-08-21T01:38:55;97227.59;;;12.25;87.94
70968;BME280;58629;48.808;8.820;2022-08-21T01:41:21;97223.13;;;12.22;88.24
70968;BME280;58629;48.808;8.820;2022-08-21T01:43:46;97224.69;;;12.19;88.03
70968;BME280;58629;48.808;8.820;2022-08-21T01:46:12;97224.03;;;12.15;87.94
70968;BME280;58629;48.808;8.820;2022-08-21T01:48:38;97225.50;;;12.00;87.71
70968;BME280;58629;48.808;8.820;2022-08-21T01:51:04;97221.50;;;11.92;87.87
70968;BME280;58629;48.808;8.820;2022-08-21T01:53:29;97217.69;;;11.93;88.67
70968;BME280;58629;48.808;8.820;2022-08-21T01:55:54;97223.25;;;11.99;89.16
70968;BME280;58629;48.808;8.820;2022-08-21T01:58:20;97219.84;;;11.98;88.55
70968;BME280;58629;48.808;8.820;2022-08-21T02:00:45;97219.84;;;11.98;88.77
70968;BME280;58629;48.808;8.820;2022-08-21T02:03:10;97219.84;;;11.98;88.37
70968;BME280;58629;48.808;8.820;2022-08-21T02:05:36;97214.19;;;11.96;89.17
70968;BME280;58629;48.808;8.820;2022-08-21T02:08:01;97213.47;;;11.96;89.22
70968;BME280;58629;48.808;8.820;2022-08-21T02:10:30;97213.47;;;11.96;88.69
70968;BME280;58629;48.808;8.820;2022-08-21T02:12:57;97208.97;;;11.93;87.81
70968;BME280;58629;48.808;8.820;2022-08-21T02:15:23;97209.81;;;11.90;88.44
70968;BME280;58629;48.808;8.820;2022-08-21T02:17:51;97208.66;;;11.91;88.61
70968;BME280;58629;48.808;8.820;2022-08-21T02:20:24;97202.28;;;11.88;88.47
70968;BME280;58629;48.808;8.820;2022-08-21T02:22:50;97207.16;;;11.90;89.78
70968;BME280;58629;48.808;8.820;2022-08-21T02:25:16;97204.94;;;11.88;88.06
70968;BME280;58629;48.808;8.820;2022-08-21T02:27:44;97200.09;;;11.83;87.64
70968;BME280;58629;48.808;8.820;2022-08-21T02:30:14;97204.66;;;11.83;88.69
70968;BME280;58629;48.808;8.820;2022-08-21T02:32:39;97196.34;;;11.81;89.24
70968;BME280;58629;48.808;8.820;2022-08-21T02:35:06;97198.75;;;11.75;88.26
70968;BME280;58629;48.808;8.820;2022-08-21T02:37:32;97199.25;;;11.70;88.16
70968;BME280;58629;48.808;8.820;2022-08-21T02:39:59;97198.16;;;11.68;88.61
70968;BME280;58629;48.808;8.820;2022-08-21T02:42:25;97190.63;;;11.63;88.86
70968;BME280;58629;48.808;8.820;2022-08-21T02:44:50;97194.47;;;11.62;88.50
70968;BME280;58629;48.808;8.820;2022-08-21T02:47:16;97200.53;;;11.62;88.73
70968;BME280;58629;48.808;8.820;2022-08-21T02:49:41;97204.41;;;11.58;88.36
70968;BME280;58629;48.808;8.820;2022-08-21T02:52:06;97202.16;;;11.56;88.67
70968;BME280;58629;48.808;8.820;2022-08-21T02:54:32;97193.19;;;11.50;89.12
70968;BME280;58629;48.808;8.820;2022-08-21T02:56:57;97195.50;;;11.48;88.83
70968;BME280;58629;48.808;8.820;2022-08-21T02:59:22;97196.53;;;11.34;87.70
70968;BME280;58629;48.808;8.820;2022-08-21T03:01:47;97193.59;;;11.29;89.01
70968;BME280;58629;48.808;8.820;2022-08-21T03:04:13;97197.00;;;11.29;88.76
70968;BME280;58629;48.808;8.820;2022-08-21T03:06:38;97198.91;;;11.29;88.98
70968;BME280;58629;48.808;8.820;2022-08-21T03:09:03;97197.16;;;11.22;88.77
70968;BME280;58629;48.808;8.820;2022-08-21T03:11:29;97199.47;;;11.20;89.20
70968;BME280;58629;48.808;8.820;2022-08-21T03:13:54;97199.88;;;11.19;88.92
70968;BME280;58629;48.808;8.820;2022-08-21T03:16:19;97195.03;;;11.14;88.97
70968;BME280;58629;48.808;8.820;2022-08-21T03:18:46;97198.09;;;11.12;88.37
70968;BME280;58629;48.808;8.820;2022-08-21T03:21:11;97196.66;;;11.08;88.92
70968;BME280;58629;48.808;8.820;2022-08-21T03:23:38;97193.56;;;11.13;89.70
70968;BME280;58629;48.808;8.820;2022-08-21T03:26:05;97191.69;;;11.10;89.33
70968;BME280;58629;48.808;8.820;2022-08-21T03:28:30;97188.28;;;11.09;89.72
70968;BME280;58629;48.808;8.820;2022-08-21T03:30:55;97191.69;;;11.10;88.97
70968;BME280;58629;48.808;8.820;2022-08-21T03:33:21;97201.56;;;11.09;89.01
70968;BME280;58629;48.808;8.820;2022-08-21T03:36:01;97193.59;;;11.09;89.62
70968;BME280;58629;48.808;8.820;2022-08-21T03:38:28;97196.19;;;11.13;89.51
70968;BME280;58629;48.808;8.820;2022-08-21T03:40:54;97194.34;;;11.10;88.82
70968;BME280;58629;48.808;8.820;2022-08-21T03:43:19;97193.59;;;11.09;89.58
70968;BME280;58629;48.808;8.820;2022-08-21T03:45:45;97193.59;;;11.09;90.01
70968;BME280;58629;48.808;8.820;2022-08-21T03:48:10;97197.06;;;11.06;89.55
70968;BME280;58629;48.808;8.820;2022-08-21T03:50:39;97196.31;;;11.06;89.95
70968;BME280;58629;48.808;8.820;2022-08-21T03:53:05;97200.53;;;11.03;89.09
70968;BME280;58629;48.808;8.820;2022-08-21T03:55:31;97207.84;;;10.96;88.92
70968;BME280;58629;48.808;8.820;2022-08-21T03:57:56;97207.59;;;10.90;88.96
70968;BME280;58629;48.808;8.820;2022-08-21T04:00:22;97209.97;;;10.85;89.68
70968;BME280;58629;48.808;8.820;2022-08-21T04:02:48;97218.31;;;10.83;89.92
70968;BME280;58629;48.808;8.820;2022-08-21T04:05:16;97215.78;;;10.76;88.61
70968;BME280;58629;48.808;8.820;2022-08-21T04:10:20;97218.09;;;10.74;90.00
70968;BME280;58629;48.808;8.820;2022-08-21T04:12:46;97217.75;;;10.72;89.43
70968;BME280;58629;48.808;8.820;2022-08-21T04:15:11;97223.78;;;10.73;89.31
70968;BME280;58629;48.808;8.820;2022-08-21T04:17:38;97228.81;;;10.67;88.73
70968;BME280;58629;48.808;8.820;2022-08-21T04:20:03;97224.59;;;10.70;89.50
70968;BME280;58629;48.808;8.820;2022-08-21T04:22:29;97231.84;;;10.66;89.60
70968;BME280;58629;48.808;8.820;2022-08-21T04:24:54;97233.28;;;10.47;88.79
70968;BME280;58629;48.808;8.820;2022-08-21T04:27:19;97228.44;;;10.42;90.09
70968;BME280;58629;48.808;8.820;2022-08-21T04:29:45;97235.59;;;10.45;90.93
70968;BME280;58629;48.808;8.820;2022-08-21T04:32:10;97244.91;;;10.53;90.84
70968;BME280;58629;48.808;8.820;2022-08-21T04:34:35;97239.97;;;10.55;90.36
70968;BME280;58629;48.808;8.820;2022-08-21T04:37:01;97235.78;;;10.58;90.26
70968;BME280;58629;48.808;8.820;2022-08-21T04:39:26;97238.78;;;10.60;90.87
70968;BME280;58629;48.808;8.820;2022-08-21T04:41:51;97248.59;;;10.59;89.55
70968;BME280;58629;48.808;8.820;2022-08-21T04:44:17;97242.16;;;10.60;90.03
70968;BME280;58629;48.808;8.820;2022-08-21T04:46:42;97242.91;;;10.61;90.07
70968;BME280;58629;48.808;8.820;2022-08-21T04:49:08;97246.03;;;10.56;88.85
70968;BME280;58629;48.808;8.820;2022-08-21T04:51:35;97247.16;;;10.55;89.40
70968;BME280;58629;48.808;8.820;2022-08-21T04:54:09;97245.22;;;10.59;90.42
70968;BME280;58629;48.808;8.820;2022-08-21T04:56:50;97248.69;;;10.52;88.88
70968;BME280;58629;48.808;8.820;2022-08-21T04:59:24;97262.00;;;10.48;89.86
70968;BME280;58629;48.808;8.820;2022-08-21T05:01:52;97266.50;;;10.52;90.63
70968;BME280;58629;48.808;8.820;2022-08-21T05:04:23;97257.75;;;10.55;90.66
70968;BME280;58629;48.808;8.820;2022-08-21T05:06:50;97255.16;;;10.51;89.80
70968;BME280;58629;48.808;8.820;2022-08-21T05:09:18;97268.00;;;10.53;89.42
70968;BME280;58629;48.808;8.820;2022-08-21T05:11:44;97256.66;;;10.52;90.09
70968;BME280;58629;48.808;8.820;2022-08-21T05:14:11;97259.53;;;10.61;90.19
70968;BME280;58629;48.808;8.820;2022-08-21T05:16:36;97260.53;;;10.71;91.09
70968;BME280;58629;48.808;8.820;2022-08-21T05:19:02;97261.56;;;10.77;91.16
70968;BME280;58629;48.808;8.820;2022-08-21T05:21:27;97269.38;;;10.84;89.95
70968;BME280;58629;48.808;8.820;2022-08-21T05:23:52;97273.03;;;10.93;90.36
70968;BME280;58629;48.808;8.820;2022-08-21T05:26:17;97272.56;;;10.98;90.60
70968;BME280;58629;48.808;8.820;2022-08-21T05:28:43;97273.94;;;11.06;90.74
70968;BME280;58629;48.808;8.820;2022-08-21T05:31:08;97273.94;;;11.06;90.44
70968;BME280;58629;48.808;8.820;2022-08-21T05:33:33;97270.41;;;11.13;90.63
70968;BME280;58629;48.808;8.820;2022-08-21T05:35:58;97279.06;;;11.17;90.22
70968;BME280;58629;48.808;8.820;2022-08-21T05:38:25;97275.56;;;11.20;89.80
70968;BME280;58629;48.808;8.820;2022-08-21T05:40:52;97275.84;;;11.25;89.68
70968;BME280;58629;48.808;8.820;2022-08-21T05:43:17;97274.22;;;11.31;89.81
70968;BME280;58629;48.808;8.820;2022-08-21T05:45:43;97274.09;;;11.39;89.76
70968;BME280;58629;48.808;8.820;2022-08-21T05:48:19;97275.47;;;11.47;89.32
70968;BME280;58629;48.808;8.820;2022-08-21T05:50:46;97270.44;;;11.52;90.57
70968;BME280;58629;48.808;8.820;2022-08-21T05:53:12;97269.50;;;11.62;90.25
70968;BME280;58629;48.808;8.820;2022-08-21T05:55:39;97273.19;;;11.68;90.06
70968;BME280;58629;48.808;8.820;2022-08-21T05:58:04;97273.44;;;11.74;90.31
70968;BME280;58629;48.808;8.820;2022-08-21T06:00:30;97270.31;;;11.79;88.60
70968;BME280;58629;48.808;8.820;2022-08-21T06:02:55;97267.84;;;11.88;89.03
70968;BME280;58629;48.808;8.820;2022-08-21T06:05:20;97267.28;;;11.96;88.72
70968;BME280;58629;48.808;8.820;2022-08-21T06:07:46;97270.81;;;12.09;88.99
70968;BME280;58629;48.808;8.820;2022-08-21T06:10:11;97265.00;;;12.14;87.50
70968;BME280;58629;48.808;8.820;2022-08-21T06:12:37;97275.72;;;12.27;88.19
70968;BME280;58629;48.808;8.820;2022-08-21T06:15:02;97271.34;;;12.37;86.78
70968;BME280;58629;48.808;8.820;2022-08-21T06:17:28;97275.00;;;12.43;85.89
70968;BME280;58629;48.808;8.820;2022-08-21T06:19:53;97275.09;;;12.55;86.51
70968;BME280;58629;48.808;8.820;2022-08-21T06:22:20;97273.25;;;12.68;86.33
70968;BME280;58629;48.808;8.820;2022-08-21T06:24:45;97275.25;;;12.80;86.69
70968;BME280;58629;48.808;8.820;2022-08-21T06:27:11;97265.09;;;12.91;85.74
70968;BME280;58629;48.808;8.820;2022-08-21T06:29:36;97265.94;;;13.04;85.11
70968;BME280;58629;48.808;8.820;2022-08-21T06:32:03;97262.94;;;13.19;85.03
70968;BME280;58629;48.808;8.820;2022-08-21T06:34:28;97263.63;;;13.35;84.69
70968;BME280;58629;48.808;8.820;2022-08-21T06:36:54;97267.84;;;13.49;83.51
70968;BME280;58629;48.808;8.820;2022-08-21T06:39:19;97268.50;;;13.65;83.27
70968;BME280;58629;48.808;8.820;2022-08-21T06:41:44;97261.53;;;13.84;83.23
70968;BME280;58629;48.808;8.820;2022-08-21T06:44:09;97261.75;;;14.02;82.28
70968;BME280;58629;48.808;8.820;2022-08-21T06:46:35;97260.47;;;14.19;82.04
70968;BME280;58629;48.808;8.820;2022-08-21T06:49:00;97263.50;;;14.34;80.29
70968;BME280;58629;48.808;8.820;2022-08-21T06:51:26;97262.97;;;14.51;79.50
70968;BME280;58629;48.808;8.820;2022-08-21T06:53:52;97264.09;;;14.63;78.63
70968;BME280;58629;48.808;8.820;2022-08-21T06:56:18;97264.41;;;14.77;77.36
70968;BME280;58629;48.808;8.820;2022-08-21T06:58:43;97259.66;;;14.94;77.46
70968;BME280;58629;48.808;8.820;2022-08-21T07:01:09;97259.81;;;15.12;77.17
70968;BME280;58629;48.808;8.820;2022-08-21T07:03:37;97259.53;;;15.32;76.68
70968;BME280;58629;48.808;8.820;2022-08-21T07:06:05;97257.34;;;15.52;76.37
70968;BME280;58629;48.808;8.820;2022-08-21T07:08:31;97264.28;;;15.71;75.06
70968;BME280;58629;48.808;8.820;2022-08-21T07:10:58;97261.56;;;15.93;74.67
70968;BME280;58629;48.808;8.820;2022-08-21T07:13:24;97259.59;;;16.15;74.49
70968;BME280;58629;48.808;8.820;2022-08-21T07:15:49;97248.84;;;16.36;73.56
70968;BME280;58629;48.808;8.820;2022-08-21T07:18:15;97255.63;;;16.59;72.63
70968;BME280;58629;48.808;8.820;2022-08-21T07:20:41;97252.09;;;16.80;72.33
70968;BME280;58629;48.808;8.820;2022-08-21T07:23:10;97254.03;;;16.98;70.44
70968;BME280;58629;48.808;8.820;2022-08-21T07:25:36;97251.84;;;17.14;69.98
70968;BME280;58629;48.808;8.820;2022-08-21T07:28:02;97249.28;;;17.38;69.85
70968;BME280;58629;48.808;8.820;2022-08-21T07:30:27;97245.00;;;17.50;68.29
70968;BME280;58629;48.808;8.820;2022-08-21T07:32:53;97245.25;;;17.70;67.31
70968;BME280;58629;48.808;8.820;2022-08-21T07:35:22;97247.44;;;17.89;66.33
70968;BME280;58629;48.808;8.820;2022-08-21T07:37:48;97240.09;;;18.08;65.32
70968;BME280;58629;48.808;8.820;2022-08-21T07:40:14;97238.53;;;18.25;63.87
70968;BME280;58629;48.808;8.820;2022-08-21T07:42:45;97233.53;;;18.42;62.44
70968;BME280;58629;48.808;8.820;2022-08-21T07:45:12;97240.31;;;18.61;62.82
70968;BME280;58629;48.808;8.820;2022-08-21T07:47:38;97237.84;;;18.72;61.51
70968;BME280;58629;48.808;8.820;2022-08-21T07:50:05;97238.94;;;18.89;60.01
70968;BME280;58629;48.808;8.820;2022-08-21T07:52:31;97243.25;;;19.10;60.35
70968;BME280;58629;48.808;8.820;2022-08-21T07:54:57;97248.66;;;19.25;58.14
70968;BME280;58629;48.808;8.820;2022-08-21T07:57:23;97244.25;;;19.36;56.85
70968;BME280;58629;48.808;8.820;2022-08-21T07:59:48;97244.66;;;19.58;57.31
70968;BME280;58629;48.808;8.820;2022-08-21T08:02:28;97236.50;;;19.67;54.95
70968;BME280;58629;48.808;8.820;2022-08-21T08:04:54;97234.94;;;19.90;55.10
70968;BME280;58629;48.808;8.820;2022-08-21T08:07:23;97233.97;;;20.08;55.56
70968;BME280;58629;48.808;8.820;2022-08-21T08:09:48;97236.94;;;20.24;54.44
70968;BME280;58629;48.808;8.820;2022-08-21T08:12:13;97238.84;;;20.38;53.52
70968;BME280;58629;48.808;8.820;2022-08-21T08:14:38;97228.03;;;20.53;53.95
70968;BME280;58629;48.808;8.820;2022-08-21T08:17:04;97224.56;;;20.67;53.54
70968;BME280;58629;48.808;8.820;2022-08-21T08:19:29;97229.41;;;20.83;52.62
70968;BME280;58629;48.808;8.820;2022-08-21T08:21:55;97229.75;;;20.91;49.85
70968;BME280;58629;48.808;8.820;2022-08-21T08:24:20;97222.25;;;21.00;48.94
70968;BME280;58629;48.808;8.820;2022-08-21T08:26:46;97215.34;;;21.14;49.22
70968;BME280;58629;48.808;8.820;2022-08-21T08:29:12;97216.13;;;21.20;49.51
70968;BME280;58629;48.808;8.820;2022-08-21T08:31:37;97221.75;;;21.42;48.91
70968;BME280;58629;48.808;8.820;2022-08-21T08:34:03;97208.19;;;21.56;47.93
70968;BME280;58629;48.808;8.820;2022-08-21T08:36:34;97210.53;;;21.75;48.08
70968;BME280;58629;48.808;8.820;2022-08-21T08:39:00;97212.81;;;21.82;47.28
70968;BME280;58629;48.808;8.820;2022-08-21T08:41:26;97205.28;;;21.91;47.48
70968;BME280;58629;48.808;8.820;2022-08-21T08:43:54;97204.38;;;22.00;46.51
70968;BME280;58629;48.808;8.820;2022-08-21T08:46:35;97202.50;;;22.11;45.11
70968;BME280;58629;48.808;8.820;2022-08-21T08:49:37;97197.25;;;22.33;42.91
70968;BME280;58629;48.808;8.820;2022-08-21T08:52:11;97197.81;;;22.49;44.42
70968;BME280;58629;48.808;8.820;2022-08-21T08:54:49;97194.59;;;22.44;42.89
70968;BME280;58629;48.808;8.820;2022-08-21T08:57:20;97189.56;;;22.63;41.69
70968;BME280;58629;48.808;8.820;2022-08-21T08:59:53;97190.84;;;22.73;43.13
70968;BME280;58629;48.808;8.820;2022-08-21T09:02:20;97195.78;;;22.86;41.92
70968;BME280;58629;48.808;8.820;2022-08-21T09:04:49;97190.88;;;22.84;41.99
70968;BME280;58629;48.808;8.820;2022-08-21T09:10:07;97186.03;;;23.10;41.32
70968;BME280;58629;48.808;8.820;2022-08-21T09:23:40;97180.50;;;23.75;39.14
70968;BME280;58629;48.808;8.820;2022-08-21T09:28:37;97164.75;;;23.90;39.33
70968;BME280;58629;48.808;8.820;2022-08-21T09:31:08;97171.13;;;23.98;39.55
70968;BME280;58629;48.808;8.820;2022-08-21T09:33:36;97170.16;;;24.12;39.01
70968;BME280;58629;48.808;8.820;2022-08-21T09:36:02;97170.38;;;24.25;39.02
70968;BME280;58629;48.808;8.820;2022-08-21T09:38:36;97175.25;;;24.43;38.76
70968;BME280;58629;48.808;8.820;2022-08-21T09:41:05;97168.84;;;24.46;37.38
70968;BME280;58629;48.808;8.820;2022-08-21T09:43:33;97166.69;;;24.17;36.78
70968;BME280;58629;48.808;8.820;2022-08-21T09:46:19;97157.63;;;24.03;37.29
70968;BME280;58629;48.808;8.820;2022-08-21T09:48:49;97158.28;;;24.37;37.93
70968;BME280;58629;48.808;8.820;2022-08-21T09:51:19;97155.72;;;24.67;38.03
70968;BME280;58629;48.808;8.820;2022-08-21T09:53:48;97156.13;;;24.87;37.45
70968;BME280;58629;48.808;8.820;2022-08-21T09:56:19;97157.78;;;25.02;37.70
70968;BME280;58629;48.808;8.820;2022-08-21T09:59:24;97158.75;;;25.04;36.39
70968;BME280;58629;48.808;8.820;2022-08-21T10:01:52;97160.47;;;25.07;36.12
70968;BME280;58629;48.808;8.820;2022-08-21T10:04:27;97149.31;;;25.16;36.00
70968;BME280;58629;48.808;8.820;2022-08-21T10:06:53;97149.72;;;25.26;36.15
70968;BME280;58629;48.808;8.820;2022-08-21T10:09:20;97149.63;;;25.07;36.23
70968;BME280;58629;48.808;8.820;2022-08-21T10:14:44;97142.97;;;25.49;36.09
70968;BME280;58629;48.808;8.820;2022-08-21T10:20:16;97141.19;;;24.70;36.22
70968;BME280;58629;48.808;8.820;2022-08-21T10:25:25;97133.69;;;25.33;35.71
70968;BME280;58629;48.808;8.820;2022-08-21T10:28:09;97125.75;;;25.70;36.13
70968;BME280;58629;48.808;8.820;2022-08-21T10:31:00;97125.44;;;26.04;35.57
70968;BME280;58629;48.808;8.820;2022-08-21T10:33:47;97126.22;;;26.23;35.56
70968;BME280;58629;48.808;8.820;2022-08-21T10:36:21;97120.31;;;26.24;35.14
70968;BME280;58629;48.808;8.820;2022-08-21T10:39:03;97123.88;;;26.56;35.45
70968;BME280;58629;48.808;8.820;2022-08-21T10:47:18;97117.84;;;25.72;33.33
70968;BME280;58629;48.808;8.820;2022-08-21T10:50:00;97116.19;;;26.18;34.40
70968;BME280;58629;48.808;8.820;2022-08-21T10:52:46;97115.66;;;26.19;33.16
70968;BME280;58629;48.808;8.820;2022-08-21T10:55:18;97117.50;;;26.54;33.91
70968;BME280;58629;48.808;8.820;2022-08-21T11:00:21;97113.44;;;26.60;32.29
70968;BME280;58629;48.808;8.820;2022-08-21T11:04:04;97105.66;;;26.09;33.47
70968;BME280;58629;48.808;8.820;2022-08-21T11:06:21;97106.13;;;26.55;32.56
70968;BME280;58629;48.808;8.820;2022-08-21T11:08:58;97112.22;;;26.61;31.94
70968;BME280;58629;48.808;8.820;2022-08-21T11:11:31;97107.44;;;26.06;31.93
70968;BME280;58629;48.808;8.820;2022-08-21T11:14:16;97096.44;;;26.17;34.07
70968;BME280;58629;48.808;8.820;2022-08-21T11:16:57;97099.06;;;26.47;32.24
70968;BME280;58629;48.808;8.820;2022-08-21T11:19:31;97101.63;;;26.58;29.50
70968;BME280;58629;48.808;8.820;2022-08-21T11:22:00;97097.75;;;26.91;29.98
70968;BME280;58629;48.808;8.820;2022-08-21T11:25:00;97101.53;;;27.19;30.74
70968;BME280;58629;48.808;8.820;2022-08-21T11:30:07;97094.25;;;27.27;29.11
70968;BME280;58629;48.808;8.820;2022-08-21T11:35:34;97079.81;;;27.32;28.65
70968;BME280;58629;48.808;8.820;2022-08-21T11:43:50;97082.56;;;28.29;29.58
70968;BME280;58629;48.808;8.820;2022-08-21T11:46:43;97084.63;;;28.50;29.31
70968;BME280;58629;48.808;8.820;2022-08-21T11:54:35;97074.63;;;28.78;28.65
70968;BME280;58629;48.808;8.820;2022-08-21T11:57:14;97066.34;;;29.04;29.10
70968;BME280;58629;48.808;8.820;2022-08-21T12:00:05;97073.03;;;29.37;29.12
70968;BME280;58629;48.808;8.820;2022-08-21T12:02:37;97071.56;;;29.16;27.84
70968;BME280;58629;48.808;8.820;2022-08-21T12:05:07;97068.72;;;29.08;27.17
70968;BME280;58629;48.808;8.820;2022-08-21T12:07:39;97064.72;;;28.88;26.54
70968;BME280;58629;48.808;8.820;2022-08-21T12:10:18;97056.41;;;28.73;26.73
70968;BME280;58629;48.808;8.820;2022-08-21T12:12:47;97052.53;;;28.69;26.38
70968;BME280;58629;48.808;8.820;2022-08-21T12:22:53;97042.81;;;29.15;27.53
70968;BME280;58629;48.808;8.820;2022-08-21T12:25:20;97038.44;;;29.32;26.68
70968;BME280;58629;48.808;8.820;2022-08-21T12:27:52;97034.69;;;29.22;26.84
70968;BME280;58629;48.808;8.820;2022-08-21T12:32:59;97035.56;;;29.38;25.56
70968;BME280;58629;48.808;8.820;2022-08-21T12:35:31;97032.31;;;29.19;26.80
70968;BME280;58629;48.808;8.820;2022-08-21T12:38:20;97037.56;;;29.17;25.84
70968;BME280;58629;48.808;8.820;2022-08-21T12:43:56;97026.13;;;29.67;27.67
70968;BME280;58629;48.808;8.820;2022-08-21T12:46:37;97027.19;;;29.84;25.42
70968;BME280;58629;48.808;8.820;2022-08-21T12:49:14;97024.38;;;29.07;25.97
70968;BME280;58629;48.808;8.820;2022-08-21T12:51:54;97029.75;;;28.46;28.10
70968;BME280;58629;48.808;8.820;2022-08-21T12:54:26;97031.16;;;28.93;27.54
70968;BME280;58629;48.808;8.820;2022-08-21T12:57:00;97023.78;;;29.01;28.12
70968;BME280;58629;48.808;8.820;2022-08-21T12:59:26;97032.59;;;28.40;27.28
70968;BME280;58629;48.808;8.820;2022-08-21T13:01:53;97026.44;;;28.73;27.26
70968;BME280;58629;48.808;8.820;2022-08-21T13:04:26;97029.59;;;28.17;27.72
70968;BME280;58629;48.808;8.820;2022-08-21T13:06:58;97025.81;;;27.81;27.39
70968;BME280;58629;48.808;8.820;2022-08-21T13:09:28;97021.41;;;28.31;27.97
70968;BME280;58629;48.808;8.820;2022-08-21T13:11:55;97027.56;;;28.78;27.53
70968;BME280;58629;48.808;8.820;2022-08-21T13:14:31;97022.41;;;29.29;27.03
70968;BME280;58629;48.808;8.820;2022-08-21T13:16:58;97028.47;;;29.63;26.59
70968;BME280;58629;48.808;8.820;2022-08-21T13:19:25;97024.44;;;29.84;27.05
70968;BME280;58629;48.808;8.820;2022-08-21T13:21:51;97022.28;;;29.90;27.53
70968;BME280;58629;48.808;8.820;2022-08-21T13:24:27;97015.88;;;30.24;27.30
70968;BME280;58629;48.808;8.820;2022-08-21T13:26:53;97016.19;;;30.48;26.49
70968;BME280;58629;48.808;8.820;2022-08-21T13:29:21;97019.53;;;30.77;26.04
70968;BME280;58629;48.808;8.820;2022-08-21T13:31:51;97015.50;;;30.70;26.00
70968;BME280;58629;48.808;8.820;2022-08-21T13:34:17;97011.44;;;30.49;26.38
70968;BME280;58629;48.808;8.820;2022-08-21T13:36:45;97017.16;;;30.81;25.99
70968;BME280;58629;48.808;8.820;2022-08-21T13:39:15;97011.00;;;30.88;25.26
70968;BME280;58629;48.808;8.820;2022-08-21T13:41:44;97009.34;;;30.85;25.47
70968;BME280;58629;48.808;8.820;2022-08-21T13:44:15;97015.34;;;30.76;25.72
70968;BME280;58629;48.808;8.820;2022-08-21T13:46:41;97002.00;;;30.65;25.01
70968;BME280;58629;48.808;8.820;2022-08-21T13:49:08;97003.63;;;30.60;24.99
70968;BME280;58629;48.808;8.820;2022-08-21T13:51:35;97010.22;;;30.22;25.17
70968;BME280;58629;48.808;8.820;2022-08-21T13:54:02;97004.38;;;30.10;26.71
70968;BME280;58629;48.808;8.820;2022-08-21T13:56:44;96993.94;;;30.01;25.41
70968;BME280;58629;48.808;8.820;2022-08-21T13:59:09;97006.88;;;30.01;26.66
70968;BME280;58629;48.808;8.820;2022-08-21T14:01:48;97001.75;;;29.69;27.46
70968;BME280;58629;48.808;8.820;2022-08-21T14:04:29;97003.50;;;29.31;28.72
70968;BME280;58629;48.808;8.820;2022-08-21T14:06:56;97014.06;;;28.25;28.26
70968;BME280;58629;48.808;8.820;2022-08-21T14:11:54;96995.94;;;28.95;28.54
70968;BME280;58629;48.808;8.820;2022-08-21T14:14:24;96999.81;;;29.49;27.63
70968;BME280;58629;48.808;8.820;2022-08-21T14:17:04;96997.31;;;29.79;28.09